createdAt,value
2022-07-25T00:00:00.540Z,4.45
2022-07-25T00:02:29.087Z,5.13
2022-07-25T00:04:57.278Z,5.05
2022-07-25T00:07:26.404Z,5.35
2022-07-25T00:09:55.235Z,4.95
2022-07-25T00:12:23.588Z,6.80
2022-07-25T00:14:53.198Z,4.95
2022-07-25T00:17:21.320Z,5.57
2022-07-25T00:19:49.457Z,5.15
2022-07-25T00:22:17.619Z,5.05
2022-07-25T00:24:45.760Z,5.40
2022-07-25T00:27:13.858Z,5.10
2022-07-25T00:29:42.029Z,4.90
2022-07-25T00:32:11.540Z,5.38
2022-07-25T00:34:39.763Z,5.07
2022-07-25T00:37:08.069Z,4.78
2022-07-25T00:39:36.601Z,4.57
2022-07-25T00:42:05.228Z,4.78
2022-07-25T00:44:34.458Z,4.78
2022-07-25T00:47:02.739Z,4.95
2022-07-25T00:49:32.374Z,5.13
2022-07-25T00:52:01.180Z,5.07
2022-07-25T00:54:30.663Z,5.10
2022-07-25T00:56:58.890Z,5.15
2022-07-25T00:59:27.766Z,4.90
2022-07-25T01:01:56.926Z,4.70
2022-07-25T01:04:25.751Z,4.95
2022-07-25T01:06:55.282Z,4.63
2022-07-25T01:09:24.128Z,4.88
2022-07-25T01:11:52.298Z,4.22
2022-07-25T01:14:21.318Z,4.93
2022-07-25T01:16:49.576Z,4.80
2022-07-25T01:19:19.590Z,4.75
2022-07-25T01:21:49.683Z,4.82
2022-07-25T01:24:17.941Z,4.70
2022-07-25T01:26:46.105Z,4.88
2022-07-25T01:29:14.351Z,4.90
2022-07-25T01:31:42.540Z,4.97
2022-07-25T01:34:10.778Z,5.55
2022-07-25T01:36:38.927Z,5.15
2022-07-25T01:39:08.400Z,4.90
2022-07-25T01:41:36.583Z,5.05
2022-07-25T01:44:05.230Z,4.82
2022-07-25T01:46:33.552Z,4.72
2022-07-25T01:49:01.715Z,4.95
2022-07-25T01:51:29.922Z,4.63
2022-07-25T01:53:58.001Z,4.88
2022-07-25T01:56:27.489Z,4.82
2022-07-25T01:58:58.469Z,5.40
2022-07-25T02:01:27.523Z,5.13
2022-07-25T02:03:55.912Z,5.20
2022-07-25T02:06:24.119Z,4.47
2022-07-25T02:08:52.779Z,5.00
2022-07-25T02:11:20.931Z,4.43
2022-07-25T02:13:50.420Z,5.72
2022-07-25T02:16:18.600Z,5.28
2022-07-25T02:18:47.783Z,4.80
2022-07-25T02:21:16.722Z,4.68
2022-07-25T02:23:45.877Z,4.93
2022-07-25T02:26:14.868Z,4.80
2022-07-25T02:28:43.132Z,4.80
2022-07-25T02:31:12.633Z,4.72
2022-07-25T02:33:40.800Z,5.18
2022-07-25T02:36:10.036Z,4.53
2022-07-25T02:38:38.808Z,4.40
2022-07-25T02:41:07.608Z,4.75
2022-07-25T02:43:35.751Z,5.00
2022-07-25T02:46:04.085Z,5.15
2022-07-25T02:48:33.732Z,4.80
2022-07-25T02:51:01.885Z,4.95
2022-07-25T02:53:54.929Z,4.68
2022-07-25T02:56:18.063Z,4.90
2022-07-25T02:58:49.348Z,4.75
2022-07-25T03:01:17.779Z,4.95
2022-07-25T03:03:47.399Z,4.90
2022-07-25T03:06:15.745Z,4.47
2022-07-25T03:08:43.816Z,4.78
2022-07-25T03:11:12.849Z,5.30
2022-07-25T03:13:41.181Z,5.15
2022-07-25T03:16:09.993Z,5.20
2022-07-25T03:18:38.200Z,4.88
2022-07-25T03:21:08.706Z,4.80
2022-07-25T03:23:37.015Z,4.95
2022-07-25T03:26:05.418Z,5.18
2022-07-25T03:28:33.551Z,4.95
2022-07-25T03:31:01.849Z,4.88
2022-07-25T03:33:30.042Z,4.82
2022-07-25T03:35:58.330Z,5.05
2022-07-25T03:38:27.889Z,4.82
2022-07-25T03:40:56.272Z,5.40
2022-07-25T03:43:24.559Z,5.22
2022-07-25T03:45:52.782Z,5.00
2022-07-25T03:48:24.186Z,4.80
2022-07-25T03:50:52.301Z,5.32
2022-07-25T03:53:20.353Z,4.97
2022-07-25T03:55:49.825Z,4.80
2022-07-25T03:58:18.183Z,4.95
2022-07-25T04:00:47.968Z,5.05
2022-07-25T04:03:16.693Z,5.25
2022-07-25T04:05:47.543Z,5.13
2022-07-25T04:08:15.976Z,5.40
2022-07-25T04:10:44.056Z,4.85
2022-07-25T04:13:13.537Z,5.25
2022-07-25T04:15:41.635Z,5.25
2022-07-25T04:18:12.208Z,5.40
2022-07-25T04:20:46.653Z,4.82
2022-07-25T04:23:14.794Z,5.25
2022-07-25T04:25:43.010Z,5.30
2022-07-25T04:28:11.062Z,5.35
2022-07-25T04:30:40.619Z,4.93
2022-07-25T04:33:08.719Z,5.60
2022-07-25T04:35:36.912Z,4.90
2022-07-25T04:38:08.868Z,4.93
2022-07-25T04:40:40.589Z,5.55
2022-07-25T04:43:09.575Z,5.10
2022-07-25T04:45:37.874Z,5.10
2022-07-25T04:48:07.982Z,5.78
2022-07-25T04:50:36.204Z,5.40
2022-07-25T04:53:04.701Z,5.07
2022-07-25T04:55:33.503Z,5.35
2022-07-25T04:58:01.845Z,5.13
2022-07-25T05:00:30.008Z,4.90
2022-07-25T05:02:58.117Z,4.95
2022-07-25T05:05:27.762Z,5.30
2022-07-25T05:07:58.248Z,4.90
2022-07-25T05:10:26.506Z,5.50
2022-07-25T05:12:54.907Z,5.15
2022-07-25T05:15:23.466Z,5.53
2022-07-25T05:17:51.728Z,5.28
2022-07-25T05:20:19.906Z,5.63
2022-07-25T05:22:49.462Z,5.55
2022-07-25T05:25:18.395Z,6.07
2022-07-25T05:27:46.583Z,5.57
2022-07-25T05:30:15.985Z,5.32
2022-07-25T05:32:44.143Z,5.60
2022-07-25T05:35:12.439Z,5.13
2022-07-25T05:37:40.552Z,5.25
2022-07-25T05:40:10.406Z,5.28
2022-07-25T05:42:38.636Z,5.53
2022-07-25T05:45:07.947Z,5.60
2022-07-25T05:47:36.053Z,5.65
2022-07-25T05:50:04.741Z,5.43
2022-07-25T05:52:32.836Z,5.28
2022-07-25T05:55:00.925Z,4.60
2022-07-25T05:57:30.499Z,6.05
2022-07-25T05:59:58.832Z,6.05
2022-07-25T06:02:27.045Z,5.43
2022-07-25T06:04:55.925Z,5.40
2022-07-25T06:07:24.016Z,5.22
2022-07-25T06:09:52.108Z,5.70
2022-07-25T06:12:20.212Z,5.78
2022-07-25T06:14:55.624Z,5.28
2022-07-25T06:17:29.181Z,5.57
2022-07-25T06:20:00.872Z,5.25
2022-07-25T06:22:29.185Z,5.78
2022-07-25T06:24:57.346Z,5.13
2022-07-25T06:27:29.246Z,5.95
2022-07-25T06:30:00.268Z,5.82
2022-07-25T06:32:29.269Z,5.97
2022-07-25T06:34:57.329Z,5.60
2022-07-25T06:37:26.040Z,5.68
2022-07-25T06:39:54.778Z,5.47
2022-07-25T06:42:23.749Z,5.95
2022-07-25T06:44:51.920Z,5.78
2022-07-25T06:47:21.449Z,5.70
2022-07-25T06:49:49.502Z,6.00
2022-07-25T06:52:17.579Z,6.47
2022-07-25T06:54:45.773Z,5.47
2022-07-25T06:57:13.861Z,5.57
2022-07-25T06:59:41.938Z,5.63
2022-07-25T07:02:10.110Z,5.32
2022-07-25T07:04:39.765Z,15.07
2022-07-25T07:07:07.858Z,6.20
2022-07-25T07:09:36.000Z,6.72
2022-07-25T07:12:04.254Z,5.75
2022-07-25T07:14:32.382Z,6.30
2022-07-25T07:17:00.488Z,6.22
2022-07-25T07:19:28.499Z,6.35
2022-07-25T07:21:58.040Z,6.35
2022-07-25T07:24:26.959Z,6.18
2022-07-25T07:26:56.410Z,6.20
2022-07-25T07:29:27.164Z,6.18
2022-07-25T07:31:55.438Z,5.90
2022-07-25T07:34:26.558Z,6.95
2022-07-25T07:37:01.165Z,6.97
2022-07-25T07:39:33.180Z,6.50
2022-07-25T07:42:01.497Z,6.82
2022-07-25T07:44:29.861Z,6.88
2022-07-25T07:47:02.006Z,6.57
2022-07-25T07:49:30.463Z,5.43
2022-07-25T07:52:06.961Z,6.20
2022-07-25T07:54:55.326Z,6.65
2022-07-25T07:57:27.242Z,6.05
2022-07-25T07:59:55.349Z,6.18
2022-07-25T08:02:24.564Z,6.43
2022-07-25T08:04:52.722Z,6.25
2022-07-25T08:07:22.358Z,7.03
2022-07-25T08:09:50.490Z,6.20
2022-07-25T08:12:18.587Z,6.07
2022-07-25T08:14:46.761Z,6.05
2022-07-25T08:17:14.876Z,6.20
2022-07-25T08:19:43.313Z,6.38
2022-07-25T08:22:11.452Z,6.50
2022-07-25T08:24:40.870Z,6.18
2022-07-25T08:27:08.957Z,6.63
2022-07-25T08:29:37.364Z,6.60
2022-07-25T08:32:06.103Z,6.30
2022-07-25T08:34:34.234Z,7.15
2022-07-25T08:37:03.110Z,6.25
2022-07-25T08:39:31.234Z,6.80
2022-07-25T08:42:02.385Z,7.07
2022-07-25T08:44:38.108Z,6.50
2022-07-25T08:47:06.674Z,6.85
2022-07-25T08:49:38.022Z,6.60
2022-07-25T08:52:09.643Z,6.25
2022-07-25T08:54:38.665Z,6.78
2022-07-25T08:57:08.596Z,5.93
2022-07-25T08:59:36.818Z,6.47
2022-07-25T09:02:07.588Z,6.22
2022-07-25T09:04:36.154Z,6.90
2022-07-25T09:07:08.187Z,6.72
2022-07-25T09:09:38.969Z,6.45
2022-07-25T09:12:09.513Z,6.75
2022-07-25T09:14:44.657Z,6.80
2022-07-25T09:17:22.133Z,6.53
2022-07-25T09:19:55.587Z,7.47
2022-07-25T09:22:23.914Z,7.78
2022-07-25T09:24:52.131Z,7.45
2022-07-25T09:27:21.853Z,6.82
2022-07-25T09:29:50.126Z,7.20
2022-07-25T09:32:21.007Z,7.32
2022-07-25T09:34:50.614Z,6.47
2022-07-25T09:37:20.933Z,7.75
2022-07-25T09:39:50.737Z,6.80
2022-07-25T09:42:22.725Z,7.30
2022-07-25T09:45:06.473Z,7.15
2022-07-25T09:47:37.394Z,6.93
2022-07-25T09:50:07.497Z,6.88
2022-07-25T09:52:36.904Z,7.13
2022-07-25T09:55:09.539Z,7.10
2022-07-25T09:57:39.687Z,6.32
2022-07-25T10:00:10.236Z,6.72
2022-07-25T10:02:46.635Z,6.45
2022-07-25T10:05:17.682Z,6.93
2022-07-25T10:07:50.535Z,6.28
2022-07-25T10:10:27.677Z,6.35
2022-07-25T10:13:11.276Z,6.60
2022-07-25T10:15:51.004Z,0.40
2022-07-25T10:18:21.103Z,0.47
2022-07-25T10:20:51.929Z,1.75
2022-07-25T10:23:25.789Z,3.50
2022-07-25T10:26:05.882Z,5.10
2022-07-25T10:28:44.450Z,6.10
2022-07-25T10:31:22.885Z,5.80
2022-07-25T10:33:54.012Z,6.05
2022-07-25T10:36:23.468Z,5.90
2022-07-25T10:38:54.614Z,6.40
2022-07-25T10:41:27.426Z,5.55
2022-07-25T10:44:01.147Z,5.28
2022-07-25T10:46:32.695Z,6.00
2022-07-25T10:49:04.306Z,5.38
2022-07-25T10:51:38.337Z,5.25
2022-07-25T10:54:15.551Z,4.95
2022-07-25T10:56:59.200Z,5.55
2022-07-25T10:59:31.260Z,4.90
2022-07-25T11:02:00.007Z,5.03
2022-07-25T11:04:28.525Z,5.15
2022-07-25T11:06:56.937Z,4.90
2022-07-25T11:09:32.770Z,5.15
2022-07-25T11:12:01.482Z,5.20
2022-07-25T11:14:33.897Z,5.20
2022-07-25T11:17:14.547Z,5.03
2022-07-25T11:19:44.357Z,5.38
2022-07-25T11:22:13.311Z,5.60
2022-07-25T11:24:43.825Z,5.10
2022-07-25T11:27:13.252Z,5.35
2022-07-25T11:29:43.349Z,5.30
2022-07-25T11:32:13.210Z,5.15
2022-07-25T11:34:44.900Z,5.03
2022-07-25T11:37:14.708Z,4.72
2022-07-25T11:39:44.647Z,5.55
2022-07-25T11:42:16.439Z,5.18
2022-07-25T11:44:48.445Z,4.93
2022-07-25T11:47:29.353Z,4.88
2022-07-25T11:49:59.706Z,5.10
2022-07-25T11:52:31.007Z,5.13
2022-07-25T11:55:01.010Z,4.78
2022-07-25T11:57:30.906Z,4.97
2022-07-25T12:00:02.635Z,5.35
2022-07-25T12:02:32.873Z,4.55
2022-07-25T12:05:02.967Z,4.85
2022-07-25T12:07:42.697Z,5.10
2022-07-25T12:10:17.752Z,5.03
2022-07-25T12:12:49.896Z,4.78
2022-07-25T12:15:22.254Z,5.28
2022-07-25T12:17:52.167Z,4.65
2022-07-25T12:20:22.379Z,4.22
2022-07-25T12:22:51.687Z,4.88
2022-07-25T12:25:20.023Z,4.35
2022-07-25T12:27:48.430Z,4.72
2022-07-25T12:30:17.155Z,3.88
2022-07-25T12:32:47.431Z,4.32
2022-07-25T12:35:15.952Z,4.32
2022-07-25T12:37:44.987Z,3.95
2022-07-25T12:40:15.451Z,4.03
2022-07-25T12:42:44.208Z,4.00
2022-07-25T12:45:13.147Z,4.47
2022-07-25T12:47:44.568Z,4.20
2022-07-25T12:50:15.057Z,4.57
2022-07-25T12:52:44.110Z,4.75
2022-07-25T12:55:14.313Z,5.63
2022-07-25T12:57:42.821Z,4.68
2022-07-25T13:00:18.450Z,4.35
2022-07-25T13:02:46.936Z,4.53
2022-07-25T13:05:16.749Z,4.20
2022-07-25T13:07:45.189Z,4.85
2022-07-25T13:10:13.522Z,4.18
2022-07-25T13:12:41.827Z,4.50
2022-07-25T13:15:11.280Z,4.53
2022-07-25T13:17:40.483Z,4.18
2022-07-25T13:20:10.671Z,4.45
2022-07-25T13:22:40.235Z,4.60
2022-07-25T13:25:09.180Z,4.70
2022-07-25T13:27:39.650Z,4.45
2022-07-25T13:30:10.233Z,4.88
2022-07-25T13:32:38.454Z,4.68
2022-07-25T13:35:07.666Z,4.70
2022-07-25T13:37:36.044Z,4.85
2022-07-25T13:40:06.910Z,4.90
2022-07-25T13:42:35.156Z,5.13
2022-07-25T13:45:03.679Z,5.13
2022-07-25T13:47:35.623Z,4.90
2022-07-25T13:50:04.264Z,5.10
2022-07-25T13:52:32.649Z,5.05
2022-07-25T13:55:00.923Z,5.28
2022-07-25T13:57:30.574Z,4.85
2022-07-25T13:59:58.850Z,5.13
2022-07-25T14:02:27.149Z,5.28
2022-07-25T14:04:55.402Z,5.10
2022-07-25T14:07:23.645Z,5.38
2022-07-25T14:09:51.890Z,6.05
2022-07-25T14:12:20.167Z,5.55
2022-07-25T14:14:50.006Z,5.15
2022-07-25T14:17:18.437Z,5.07
2022-07-25T14:19:46.760Z,5.00
2022-07-25T14:22:15.158Z,5.10
2022-07-25T14:24:43.633Z,5.10
2022-07-25T14:27:12.039Z,5.72
2022-07-25T14:29:40.762Z,4.90
2022-07-25T14:32:10.604Z,4.43
2022-07-25T14:34:40.511Z,4.80
2022-07-25T14:37:09.552Z,4.95
2022-07-25T14:39:37.783Z,4.97
2022-07-25T14:42:06.225Z,4.47
2022-07-25T14:44:34.460Z,4.45
2022-07-25T14:47:12.087Z,4.95
2022-07-25T14:49:43.719Z,4.57
2022-07-25T14:52:14.399Z,4.80
2022-07-25T14:54:43.231Z,5.07
2022-07-25T14:57:11.787Z,4.53
2022-07-25T14:59:40.086Z,5.13
2022-07-25T15:02:09.102Z,5.13
2022-07-25T15:04:37.409Z,4.82
2022-07-25T15:07:07.599Z,5.13
2022-07-25T15:09:35.877Z,5.57
2022-07-25T15:12:04.231Z,4.63
2022-07-25T15:14:32.448Z,4.85
2022-07-25T15:17:00.787Z,5.55
2022-07-25T15:19:29.437Z,4.72
2022-07-25T15:21:57.915Z,5.35
2022-07-25T15:24:29.382Z,4.93
2022-07-25T15:26:58.686Z,5.57
2022-07-25T15:29:27.894Z,5.50
2022-07-25T15:31:56.264Z,5.45
2022-07-25T15:34:24.707Z,5.13
2022-07-25T15:36:53.013Z,4.53
2022-07-25T15:39:23.493Z,5.78
2022-07-25T15:41:53.164Z,5.55
2022-07-25T15:44:21.627Z,5.22
2022-07-25T15:46:50.207Z,5.40
2022-07-25T15:49:18.597Z,5.25
2022-07-25T15:51:47.509Z,5.90
2022-07-25T15:54:15.765Z,5.30
2022-07-25T15:56:44.323Z,5.32
2022-07-25T15:59:14.640Z,5.38
2022-07-25T16:01:43.906Z,5.70
2022-07-25T16:04:12.511Z,5.50
2022-07-25T16:06:41.498Z,5.63
2022-07-25T16:09:12.567Z,6.03
2022-07-25T16:11:40.751Z,5.60
2022-07-25T16:14:09.916Z,5.28
2022-07-25T16:16:39.584Z,5.13
2022-07-25T16:19:09.732Z,5.57
2022-07-25T16:21:39.934Z,4.90
2022-07-25T16:24:09.616Z,5.32
2022-07-25T16:26:37.848Z,5.07
2022-07-25T16:29:07.020Z,5.65
2022-07-25T16:31:35.586Z,5.53
2022-07-25T16:34:05.357Z,5.03
2022-07-25T16:36:33.543Z,4.95
2022-07-25T16:39:01.807Z,4.78
2022-07-25T16:41:30.407Z,6.10
2022-07-25T16:43:58.716Z,11.30
2022-07-25T16:46:28.614Z,10.57
2022-07-25T16:48:57.071Z,8.45
2022-07-25T16:51:26.770Z,4.53
2022-07-25T16:53:55.521Z,4.00
2022-07-25T16:56:23.883Z,3.90
2022-07-25T16:58:52.284Z,4.38
2022-07-25T17:01:20.814Z,3.40
2022-07-25T17:03:49.164Z,3.58
2022-07-25T17:06:17.776Z,3.83
2022-07-25T17:08:47.854Z,3.47
2022-07-25T17:11:16.182Z,3.25
2022-07-25T17:13:44.541Z,3.63
2022-07-25T17:16:13.190Z,3.40
2022-07-25T17:18:41.698Z,3.25
2022-07-25T17:21:10.729Z,4.82
2022-07-25T17:23:39.045Z,10.13
2022-07-25T17:26:08.736Z,7.65
2022-07-25T17:28:37.237Z,8.35
2022-07-25T17:31:05.576Z,9.35
2022-07-25T17:33:33.908Z,8.07
2022-07-25T17:36:02.081Z,9.07
2022-07-25T17:38:34.681Z,4.45
2022-07-25T17:41:03.490Z,4.72
2022-07-25T17:43:33.114Z,4.47
2022-07-25T17:46:01.571Z,4.70
2022-07-25T17:48:29.899Z,4.30
2022-07-25T17:50:58.558Z,3.50
2022-07-25T17:53:26.744Z,3.53
2022-07-25T17:55:56.896Z,3.10
2022-07-25T17:58:25.244Z,3.40
2022-07-25T18:00:58.208Z,2.70
2022-07-25T18:03:30.912Z,2.28
2022-07-25T18:05:59.242Z,2.53
2022-07-25T18:08:30.562Z,2.53
2022-07-25T18:10:58.758Z,2.75
2022-07-25T18:13:26.881Z,2.67
2022-07-25T18:15:56.606Z,2.60
2022-07-25T18:18:24.976Z,2.38
2022-07-25T18:20:53.273Z,3.00
2022-07-25T18:23:21.391Z,2.58
2022-07-25T18:25:49.680Z,2.33
2022-07-25T18:28:21.717Z,2.47
2022-07-25T18:30:50.261Z,2.13
2022-07-25T18:33:20.506Z,2.60
2022-07-25T18:35:50.708Z,2.20
2022-07-25T18:38:19.112Z,2.33
2022-07-25T18:40:47.569Z,2.30
2022-07-25T18:43:15.820Z,2.33
2022-07-25T18:45:46.754Z,2.15
2022-07-25T18:48:15.294Z,2.08
2022-07-25T18:50:45.065Z,2.25
2022-07-25T18:53:13.215Z,2.40
2022-07-25T18:55:42.989Z,2.72
2022-07-25T18:58:15.800Z,2.15
2022-07-25T19:00:44.070Z,2.20
2022-07-25T19:03:12.244Z,2.13
2022-07-25T19:05:40.425Z,2.30
2022-07-25T19:08:10.141Z,2.80
2022-07-25T19:10:38.248Z,2.45
2022-07-25T19:13:06.302Z,2.38
2022-07-25T19:15:35.373Z,2.20
2022-07-25T19:18:05.189Z,2.13
2022-07-25T19:20:33.494Z,2.50
2022-07-25T19:23:02.029Z,2.20
2022-07-25T19:25:31.572Z,2.28
2022-07-25T19:27:59.848Z,2.50
2022-07-25T19:30:28.109Z,2.08
2022-07-25T19:32:56.147Z,2.45
2022-07-25T19:35:26.351Z,2.10
2022-07-25T19:37:54.618Z,2.15
2022-07-25T19:40:23.220Z,1.92
2022-07-25T19:42:52.691Z,1.92
2022-07-25T19:45:21.118Z,1.90
2022-07-25T19:47:49.855Z,2.00
2022-07-25T19:50:18.355Z,1.98
2022-07-25T19:52:46.557Z,1.80
2022-07-25T19:55:15.801Z,1.35
2022-07-25T19:57:43.997Z,1.65
2022-07-25T20:00:14.669Z,1.40
2022-07-25T20:03:26.326Z,1.60
2022-07-25T20:05:57.648Z,1.90
2022-07-25T20:08:25.939Z,1.73
2022-07-25T20:10:54.434Z,1.70
2022-07-25T20:13:23.142Z,1.75
2022-07-25T20:15:52.741Z,1.73
2022-07-25T20:18:21.344Z,1.70
2022-07-25T20:20:50.891Z,1.73
2022-07-25T20:23:19.925Z,1.87
2022-07-25T20:25:49.583Z,1.70
2022-07-25T20:28:21.326Z,1.80
2022-07-25T20:30:51.190Z,1.60
2022-07-25T20:33:24.278Z,1.70
2022-07-25T20:35:52.836Z,1.83
2022-07-25T20:38:21.303Z,1.77
2022-07-25T20:40:50.141Z,1.97
2022-07-25T20:43:19.934Z,1.90
2022-07-25T20:45:49.663Z,1.70
2022-07-25T20:48:26.775Z,1.80
2022-07-25T20:51:05.186Z,2.07
2022-07-25T20:53:35.048Z,2.40
2022-07-25T20:56:05.218Z,1.83
2022-07-25T20:58:40.043Z,1.80
2022-07-25T21:01:08.316Z,2.07
2022-07-25T21:03:37.298Z,1.80
2022-07-25T21:06:07.444Z,1.80
2022-07-25T21:08:35.857Z,1.90
2022-07-25T21:11:05.581Z,1.70
2022-07-25T21:13:33.782Z,1.70
2022-07-25T21:16:02.198Z,1.80
2022-07-25T21:18:30.652Z,1.77
2022-07-25T21:20:59.484Z,1.80
2022-07-25T21:23:29.409Z,1.50
2022-07-25T21:26:00.758Z,1.57
2022-07-25T21:28:29.122Z,1.60
2022-07-25T21:30:57.832Z,1.50
2022-07-25T21:33:27.652Z,1.87
2022-07-25T21:35:55.781Z,2.00
2022-07-25T21:38:26.382Z,1.80
2022-07-25T21:40:57.330Z,2.00
2022-07-25T21:43:25.587Z,1.87
2022-07-25T21:45:53.786Z,1.77
2022-07-25T21:48:43.302Z,1.90
2022-07-25T21:51:18.789Z,1.60
2022-07-25T21:53:48.584Z,1.40
2022-07-25T21:56:18.139Z,1.60
2022-07-25T21:58:46.547Z,1.70
2022-07-25T22:01:14.882Z,1.70
2022-07-25T22:04:03.042Z,1.70
2022-07-25T22:06:31.193Z,1.90
2022-07-25T22:08:59.659Z,1.90
2022-07-25T22:11:42.683Z,1.70
2022-07-25T22:14:14.341Z,1.53
2022-07-25T22:16:45.770Z,1.83
2022-07-25T22:19:14.680Z,1.80
2022-07-25T22:21:50.163Z,1.55
2022-07-25T22:24:21.284Z,1.90
2022-07-25T22:26:50.805Z,1.70
2022-07-25T22:29:19.024Z,2.53
2022-07-25T22:31:47.410Z,1.80
2022-07-25T22:34:15.593Z,1.98
2022-07-25T22:36:43.981Z,2.10
2022-07-25T22:39:12.805Z,2.10
2022-07-25T22:41:47.439Z,2.47
2022-07-25T22:44:17.574Z,2.57
2022-07-25T22:46:46.251Z,2.10
2022-07-25T22:49:14.515Z,2.38
2022-07-25T22:51:43.216Z,2.40
2022-07-25T22:54:11.361Z,1.90
2022-07-25T22:56:39.638Z,2.60
2022-07-25T22:59:08.210Z,2.07
2022-07-25T23:01:38.060Z,2.20
2022-07-25T23:04:06.560Z,2.00
2022-07-25T23:06:34.784Z,2.67
2022-07-25T23:09:02.917Z,2.20
2022-07-25T23:11:31.116Z,2.37
2022-07-25T23:13:59.219Z,2.33
2022-07-25T23:16:27.934Z,2.93
2022-07-25T23:18:57.993Z,1.80
2022-07-25T23:21:31.176Z,2.20
2022-07-25T23:24:00.126Z,2.30
2022-07-25T23:26:28.829Z,2.20
2022-07-25T23:28:57.062Z,2.10
2022-07-25T23:31:25.187Z,2.10
2022-07-25T23:33:53.320Z,2.40
2022-07-25T23:36:22.820Z,2.10
2022-07-25T23:38:50.902Z,2.43
2022-07-25T23:41:19.078Z,2.13
2022-07-25T23:43:57.554Z,2.20
2022-07-25T23:46:29.540Z,1.77
2022-07-25T23:49:00.373Z,2.00
2022-07-25T23:51:35.927Z,1.93
2022-07-25T23:54:06.360Z,2.20
2022-07-25T23:56:34.444Z,2.10
2022-07-25T23:59:02.552Z,2.00
